createdAt,value
2023-03-26T00:01:24.907Z,8.20
2023-03-26T00:03:58.122Z,8.20
2023-03-26T00:06:32.210Z,8.10
2023-03-26T00:08:59.174Z,8.10
2023-03-26T00:11:27.839Z,8.10
2023-03-26T00:13:57.832Z,8.10
2023-03-26T00:16:27.829Z,8.00
2023-03-26T00:18:55.395Z,8.00
2023-03-26T00:21:28.137Z,8.00
2023-03-26T00:23:58.541Z,8.10
2023-03-26T00:26:31.194Z,8.10
2023-03-26T00:29:00.572Z,8.00
2023-03-26T00:31:27.809Z,8.00
2023-03-26T00:33:57.065Z,7.90
2023-03-26T00:36:27.204Z,7.90
2023-03-26T00:38:54.975Z,7.90
2023-03-26T00:41:26.198Z,7.90
2023-03-26T00:43:58.244Z,7.80
2023-03-26T00:46:27.131Z,7.90
2023-03-26T00:48:54.195Z,7.80
2023-03-26T00:51:22.117Z,7.90
2023-03-26T00:53:50.595Z,7.80
2023-03-26T00:56:18.314Z,7.80
2023-03-26T00:58:46.282Z,7.80
2023-03-26T01:01:16.414Z,7.80
2023-03-26T01:04:00.711Z,7.80
2023-03-26T01:06:36.039Z,7.80
2023-03-26T01:09:12.857Z,7.70
2023-03-26T01:11:40.120Z,7.70
2023-03-26T01:14:12.257Z,7.80
2023-03-26T01:16:45.200Z,7.80
2023-03-26T01:19:47.502Z,7.80
2023-03-26T01:22:18.439Z,7.80
2023-03-26T01:24:52.240Z,7.80
2023-03-26T01:27:46.690Z,7.80
2023-03-26T01:30:16.283Z,7.90
2023-03-26T01:32:51.916Z,7.80
2023-03-26T01:35:27.669Z,7.80
2023-03-26T01:38:00.276Z,7.80
2023-03-26T01:40:43.248Z,7.80
2023-03-26T01:43:32.383Z,7.80
2023-03-26T01:46:03.836Z,7.80
2023-03-26T01:48:34.630Z,7.80
2023-03-26T01:51:01.602Z,7.70
2023-03-26T01:53:29.176Z,7.70
2023-03-26T01:56:11.261Z,7.70
2023-03-26T01:58:44.279Z,7.70
2023-03-26T02:01:32.708Z,7.70
2023-03-26T02:04:06.779Z,7.60
2023-03-26T02:06:48.020Z,7.60
2023-03-26T02:09:20.822Z,7.50
2023-03-26T02:11:49.306Z,7.50
2023-03-26T02:14:16.880Z,7.50
2023-03-26T02:16:47.248Z,7.50
2023-03-26T02:19:23.690Z,7.50
2023-03-26T02:21:53.552Z,7.60
2023-03-26T02:24:20.914Z,7.50
2023-03-26T02:26:47.605Z,7.60
2023-03-26T02:29:19.451Z,7.50
2023-03-26T02:31:48.518Z,7.60
2023-03-26T02:34:16.766Z,7.60
2023-03-26T02:36:43.536Z,7.60
2023-03-26T02:39:11.210Z,7.60
2023-03-26T02:41:39.051Z,7.70
2023-03-26T02:44:06.035Z,7.70
2023-03-26T02:46:33.884Z,7.70
2023-03-26T02:49:02.825Z,7.70
2023-03-26T02:51:29.584Z,7.70
2023-03-26T02:53:56.426Z,7.70
2023-03-26T02:56:23.147Z,7.70
2023-03-26T02:58:49.857Z,7.70
2023-03-26T03:01:18.536Z,7.70
2023-03-26T03:03:47.502Z,7.80
2023-03-26T03:06:17.463Z,7.80
2023-03-26T03:08:46.450Z,7.80
2023-03-26T03:11:16.379Z,7.70
2023-03-26T03:13:44.405Z,7.70
2023-03-26T03:16:11.752Z,7.70
2023-03-26T03:18:38.524Z,7.70
2023-03-26T03:21:06.264Z,7.70
2023-03-26T03:23:33.288Z,7.70
2023-03-26T03:26:00.353Z,7.70
2023-03-26T03:28:27.280Z,7.60
2023-03-26T03:30:54.044Z,7.60
2023-03-26T03:33:21.523Z,7.70
2023-03-26T03:35:50.174Z,7.70
2023-03-26T03:38:17.941Z,7.70
2023-03-26T03:40:45.583Z,7.70
2023-03-26T03:43:12.486Z,7.70
2023-03-26T03:45:39.180Z,7.80
2023-03-26T03:48:06.302Z,7.80
2023-03-26T03:50:35.504Z,7.80
2023-03-26T03:53:03.458Z,7.80
2023-03-26T03:55:30.168Z,7.80
2023-03-26T03:57:58.677Z,7.80
2023-03-26T04:00:25.516Z,7.80
2023-03-26T04:02:54.604Z,7.80
2023-03-26T04:05:24.162Z,7.90
2023-03-26T04:07:51.115Z,7.90
2023-03-26T04:10:17.870Z,7.90
2023-03-26T04:12:44.608Z,7.90
2023-03-26T04:15:11.889Z,7.90
2023-03-26T04:17:42.635Z,7.90
2023-03-26T04:20:16.169Z,7.90
2023-03-26T04:22:46.709Z,7.90
2023-03-26T04:25:15.586Z,7.90
2023-03-26T04:27:46.436Z,7.90
2023-03-26T04:30:17.276Z,7.90
2023-03-26T04:32:45.432Z,7.90
2023-03-26T04:35:14.500Z,8.00
2023-03-26T04:37:44.396Z,8.00
2023-03-26T04:40:16.903Z,8.00
2023-03-26T04:42:46.275Z,8.00
2023-03-26T04:45:22.853Z,8.00
2023-03-26T04:47:50.490Z,8.00
2023-03-26T04:50:17.868Z,8.00
2023-03-26T04:52:45.448Z,8.00
2023-03-26T04:55:29.793Z,8.00
2023-03-26T04:57:59.864Z,8.00
2023-03-26T05:00:28.556Z,8.00
2023-03-26T05:02:57.958Z,8.00
2023-03-26T05:05:26.883Z,8.00
2023-03-26T05:07:55.156Z,8.00
2023-03-26T05:10:22.744Z,8.00
2023-03-26T05:12:49.662Z,8.00
2023-03-26T05:15:16.880Z,8.00
2023-03-26T05:17:44.030Z,8.00
2023-03-26T05:20:21.020Z,8.00
2023-03-26T05:22:49.882Z,8.00
2023-03-26T05:25:18.076Z,8.10
2023-03-26T05:27:46.086Z,8.10
2023-03-26T05:30:18.533Z,8.10
2023-03-26T05:32:48.913Z,8.20
2023-03-26T05:35:19.300Z,8.30
2023-03-26T05:37:49.743Z,8.30
2023-03-26T05:40:17.263Z,8.30
2023-03-26T05:42:45.647Z,8.30
2023-03-26T05:45:14.423Z,8.30
2023-03-26T05:47:41.350Z,8.40
2023-03-26T05:50:09.466Z,8.40
2023-03-26T05:52:36.252Z,8.50
2023-03-26T05:55:03.225Z,8.50
2023-03-26T05:57:31.187Z,8.50
2023-03-26T05:59:57.944Z,8.60
2023-03-26T06:02:24.850Z,8.60
2023-03-26T06:04:51.865Z,8.60
2023-03-26T06:07:19.863Z,8.70
2023-03-26T06:09:46.955Z,8.70
2023-03-26T06:12:14.861Z,8.80
2023-03-26T06:14:45.895Z,8.80
2023-03-26T06:17:12.919Z,8.90
2023-03-26T06:19:39.661Z,8.80
2023-03-26T06:22:06.626Z,8.90
2023-03-26T06:24:34.532Z,8.80
2023-03-26T06:27:01.320Z,8.80
2023-03-26T06:29:28.473Z,8.80
2023-03-26T06:31:55.267Z,8.80
2023-03-26T06:34:22.255Z,8.80
2023-03-26T06:36:53.230Z,8.80
2023-03-26T06:39:21.599Z,8.70
2023-03-26T06:41:48.502Z,8.70
2023-03-26T06:44:15.442Z,8.80
2023-03-26T06:46:42.226Z,8.80
2023-03-26T06:49:09.358Z,8.80
2023-03-26T06:51:36.161Z,8.90
2023-03-26T06:54:03.001Z,8.90
2023-03-26T06:56:29.755Z,8.90
2023-03-26T06:58:56.830Z,8.90
2023-03-26T07:01:23.839Z,8.80
2023-03-26T07:03:51.155Z,8.70
2023-03-26T07:06:19.261Z,8.60
2023-03-26T07:08:46.035Z,8.40
2023-03-26T07:11:12.955Z,8.30
2023-03-26T07:13:40.113Z,8.10
2023-03-26T07:16:07.499Z,8.10
2023-03-26T07:18:34.367Z,8.00
2023-03-26T07:21:01.768Z,7.90
2023-03-26T07:23:28.770Z,7.90
2023-03-26T07:25:56.164Z,8.00
2023-03-26T07:29:15.667Z,8.00
2023-03-26T07:32:09.552Z,8.10
2023-03-26T07:35:02.152Z,8.10
2023-03-26T07:37:34.726Z,8.10
2023-03-26T07:40:11.646Z,8.20
2023-03-26T07:42:58.056Z,8.20
2023-03-26T07:45:45.629Z,8.30
2023-03-26T07:48:25.515Z,8.40
2023-03-26T07:50:53.337Z,8.60
2023-03-26T07:53:21.087Z,8.70
2023-03-26T07:55:58.036Z,8.90
2023-03-26T07:58:57.531Z,9.00
2023-03-26T08:02:06.353Z,9.20
2023-03-26T08:04:46.682Z,9.30
2023-03-26T08:07:45.187Z,9.40
2023-03-26T08:10:35.530Z,9.40
2023-03-26T08:13:27.443Z,9.70
2023-03-26T08:16:38.642Z,9.80
2023-03-26T08:19:16.667Z,9.80
2023-03-26T08:21:51.696Z,9.70
2023-03-26T08:24:24.525Z,9.50
2023-03-26T08:27:18.753Z,9.30
2023-03-26T08:30:02.680Z,8.90
2023-03-26T08:32:30.273Z,8.80
2023-03-26T08:34:57.606Z,8.70
2023-03-26T08:37:24.449Z,8.70
2023-03-26T08:39:51.362Z,8.80
2023-03-26T08:42:30.179Z,8.90
2023-03-26T08:45:25.212Z,8.90
2023-03-26T08:48:03.373Z,9.10
2023-03-26T08:50:49.715Z,9.20
2023-03-26T08:53:58.254Z,9.20
2023-03-26T08:56:39.481Z,9.30
2023-03-26T08:59:43.647Z,9.30
2023-03-26T09:02:45.814Z,9.40
2023-03-26T09:05:34.286Z,9.50
2023-03-26T09:08:25.765Z,9.40
2023-03-26T09:11:39.617Z,9.40
2023-03-26T09:14:43.317Z,9.50
2023-03-26T09:17:16.075Z,9.60
2023-03-26T09:19:45.815Z,9.70
2023-03-26T09:22:24.427Z,9.80
2023-03-26T09:25:09.283Z,9.90
2023-03-26T09:27:57.119Z,10.10
2023-03-26T09:30:41.506Z,10.10
2023-03-26T09:33:27.998Z,10.30
2023-03-26T09:36:28.053Z,10.40
2023-03-26T09:39:10.829Z,10.50
2023-03-26T09:42:01.449Z,10.50
2023-03-26T09:44:28.135Z,10.70
2023-03-26T09:47:34.398Z,10.80
2023-03-26T09:50:35.101Z,10.80
2023-03-26T09:53:09.064Z,10.90
2023-03-26T09:56:20.974Z,11.10
2023-03-26T09:58:54.059Z,11.10
2023-03-26T10:01:32.313Z,10.90
2023-03-26T10:04:23.856Z,10.60
2023-03-26T10:07:17.777Z,10.50
2023-03-26T10:10:28.823Z,10.40
2023-03-26T10:13:14.525Z,10.50
2023-03-26T10:15:58.618Z,10.40
2023-03-26T10:18:42.517Z,10.40
2023-03-26T10:21:30.455Z,10.40
2023-03-26T10:24:13.246Z,10.40
2023-03-26T10:27:09.270Z,10.40
2023-03-26T10:30:04.713Z,10.40
2023-03-26T10:32:53.053Z,10.40
2023-03-26T10:35:32.071Z,10.50
2023-03-26T10:38:18.734Z,10.60
2023-03-26T10:40:58.445Z,10.70
2023-03-26T10:44:01.259Z,10.70
2023-03-26T10:47:12.916Z,10.70
2023-03-26T10:50:01.277Z,10.70
2023-03-26T10:52:36.789Z,10.90
2023-03-26T10:55:24.305Z,10.90
2023-03-26T10:58:01.866Z,11.00
2023-03-26T11:00:30.154Z,11.00
2023-03-26T11:03:36.075Z,11.00
2023-03-26T11:06:06.036Z,11.00
2023-03-26T11:08:53.651Z,11.10
2023-03-26T11:11:49.575Z,11.30
2023-03-26T11:14:34.204Z,11.30
2023-03-26T11:17:40.306Z,11.50
2023-03-26T11:20:18.873Z,11.40
2023-03-26T11:23:32.901Z,11.40
2023-03-26T11:26:15.760Z,11.40
2023-03-26T11:29:02.970Z,11.40
2023-03-26T11:31:48.482Z,11.50
2023-03-26T11:34:40.091Z,11.60
2023-03-26T11:37:15.180Z,11.70
2023-03-26T11:39:49.970Z,11.70
2023-03-26T11:42:20.571Z,11.70
2023-03-26T11:45:03.090Z,11.70
2023-03-26T11:47:41.790Z,11.70
2023-03-26T11:50:16.515Z,11.70
2023-03-26T11:52:45.935Z,11.70
2023-03-26T11:55:16.592Z,11.70
2023-03-26T11:57:52.738Z,11.80
2023-03-26T12:00:23.553Z,11.90
2023-03-26T12:02:56.021Z,11.90
2023-03-26T12:05:29.544Z,11.70
2023-03-26T12:08:02.361Z,11.70
2023-03-26T12:10:43.554Z,11.50
2023-03-26T12:13:25.798Z,11.50
2023-03-26T12:15:59.135Z,11.50
2023-03-26T12:18:28.089Z,11.50
2023-03-26T12:21:18.624Z,11.50
2023-03-26T12:23:53.428Z,11.50
2023-03-26T12:26:31.834Z,11.40
2023-03-26T12:29:15.701Z,11.50
2023-03-26T12:31:48.174Z,11.40
2023-03-26T12:34:19.150Z,11.30
2023-03-26T12:36:52.316Z,11.20
2023-03-26T12:40:08.862Z,11.00
2023-03-26T12:44:50.583Z,10.90
2023-03-26T12:45:29.493Z,10.80
2023-03-26T12:48:03.746Z,10.80
2023-03-26T12:50:40.843Z,10.80
2023-03-26T12:53:24.557Z,10.90
2023-03-26T12:56:01.542Z,10.90
2023-03-26T12:58:51.336Z,11.00
2023-03-26T13:01:53.901Z,11.20
2023-03-26T13:04:58.479Z,11.30
2023-03-26T13:07:50.764Z,11.30
2023-03-26T13:10:23.647Z,11.40
2023-03-26T13:13:14.516Z,11.60
2023-03-26T13:15:52.840Z,11.70
2023-03-26T13:18:28.829Z,11.80
2023-03-26T13:21:35.254Z,11.90
2023-03-26T13:24:49.606Z,11.90
2023-03-26T13:27:59.894Z,11.90
2023-03-26T13:30:37.914Z,12.00
2023-03-26T13:33:23.491Z,11.90
2023-03-26T13:36:21.620Z,11.80
2023-03-26T13:39:17.326Z,11.70
2023-03-26T13:42:02.139Z,11.70
2023-03-26T13:45:05.383Z,11.60
2023-03-26T13:47:41.277Z,11.60
2023-03-26T13:50:25.101Z,11.60
2023-03-26T13:53:08.135Z,11.50
2023-03-26T13:55:48.840Z,11.50
2023-03-26T13:58:34.270Z,11.50
2023-03-26T14:01:19.911Z,11.40
2023-03-26T14:04:10.344Z,11.40
2023-03-26T14:06:42.364Z,11.50
2023-03-26T14:09:25.213Z,11.50
2023-03-26T14:12:20.400Z,11.60
2023-03-26T14:15:04.520Z,11.60
2023-03-26T14:17:31.255Z,11.50
2023-03-26T14:20:24.033Z,11.50
2023-03-26T14:23:09.454Z,11.40
2023-03-26T14:25:58.442Z,11.40
2023-03-26T14:28:34.031Z,11.40
2023-03-26T14:31:09.880Z,11.50
2023-03-26T14:34:14.302Z,11.60
2023-03-26T14:37:12.891Z,11.70
2023-03-26T14:40:17.780Z,11.60
2023-03-26T14:43:04.627Z,11.60
2023-03-26T14:45:40.762Z,11.60
2023-03-26T14:48:45.477Z,11.60
2023-03-26T14:51:35.558Z,11.50
2023-03-26T14:54:12.646Z,11.40
2023-03-26T14:56:53.357Z,11.30
2023-03-26T14:59:44.283Z,11.30
2023-03-26T15:02:40.788Z,11.20
2023-03-26T15:05:13.830Z,11.20
2023-03-26T15:07:44.584Z,11.20
2023-03-26T15:10:32.022Z,11.20
2023-03-26T15:13:47.321Z,11.10
2023-03-26T15:16:32.283Z,11.10
2023-03-26T15:19:33.440Z,11.00
2023-03-26T15:22:10.662Z,10.90
2023-03-26T15:25:08.548Z,10.80
2023-03-26T15:27:49.067Z,10.80
2023-03-26T15:30:51.296Z,10.70
2023-03-26T15:33:26.781Z,10.80
2023-03-26T15:36:13.854Z,10.70
2023-03-26T15:38:59.242Z,10.70
2023-03-26T15:41:51.346Z,10.70
2023-03-26T15:44:36.141Z,10.60
2023-03-26T15:47:19.316Z,10.60
2023-03-26T15:50:08.147Z,10.50
2023-03-26T15:52:48.910Z,10.50
2023-03-26T15:55:31.121Z,10.50
2023-03-26T15:58:25.196Z,10.40
2023-03-26T16:01:26.118Z,10.40
2023-03-26T16:04:09.179Z,10.40
2023-03-26T16:06:51.934Z,10.30
2023-03-26T16:09:48.258Z,10.40
2023-03-26T16:12:17.724Z,10.30
2023-03-26T16:14:46.917Z,10.30
2023-03-26T16:17:18.524Z,10.30
2023-03-26T16:20:23.233Z,10.30
2023-03-26T16:22:53.280Z,10.20
2023-03-26T16:25:27.086Z,10.20
2023-03-26T16:28:11.057Z,10.10
2023-03-26T16:30:39.059Z,10.10
2023-03-26T16:33:16.130Z,10.10
2023-03-26T16:36:04.690Z,10.10
2023-03-26T16:39:00.043Z,10.00
2023-03-26T16:41:28.695Z,10.00
2023-03-26T16:44:11.002Z,9.90
2023-03-26T16:46:50.902Z,9.90
2023-03-26T16:49:32.633Z,9.80
2023-03-26T16:52:07.951Z,9.80
2023-03-26T16:55:02.244Z,9.80
2023-03-26T16:57:41.613Z,9.70
2023-03-26T17:00:19.006Z,9.70
2023-03-26T17:03:40.451Z,9.70
2023-03-26T17:06:50.299Z,9.60
2023-03-26T17:10:21.631Z,9.50
2023-03-26T17:13:09.813Z,9.40
2023-03-26T17:15:52.343Z,9.40
2023-03-26T17:18:50.489Z,9.40
2023-03-26T17:25:23.650Z,9.20
2023-03-26T17:31:47.112Z,9.10
2023-03-26T17:35:36.792Z,9.10
2023-03-26T17:38:45.258Z,9.00
2023-03-26T17:41:58.937Z,9.00
2023-03-26T17:45:07.555Z,9.00
2023-03-26T17:48:52.792Z,9.00
2023-03-26T17:59:18.146Z,8.90
2023-03-26T18:01:48.280Z,8.90
2023-03-26T18:04:24.956Z,9.00
2023-03-26T18:07:15.417Z,9.00
2023-03-26T18:09:53.515Z,8.90
2023-03-26T18:12:58.144Z,8.70
2023-03-26T18:15:34.054Z,8.70
2023-03-26T18:18:32.462Z,8.60
2023-03-26T18:21:04.610Z,8.60
2023-03-26T18:23:42.614Z,8.50
2023-03-26T18:26:34.577Z,8.60
2023-03-26T18:29:32.738Z,8.50
2023-03-26T18:32:28.359Z,8.50
2023-03-26T18:35:26.329Z,8.40
2023-03-26T18:40:58.828Z,8.40
2023-03-26T18:43:34.816Z,8.20
2023-03-26T18:46:09.471Z,8.10
2023-03-26T18:48:36.913Z,8.10
2023-03-26T18:51:06.734Z,8.10
2023-03-26T18:53:43.062Z,8.00
2023-03-26T18:56:36.133Z,8.00
2023-03-26T18:59:09.481Z,7.90
2023-03-26T19:01:40.825Z,7.80
2023-03-26T19:04:10.640Z,7.80
2023-03-26T19:06:45.443Z,7.80
2023-03-26T19:09:30.452Z,7.70
2023-03-26T19:12:14.607Z,7.60
2023-03-26T19:15:03.864Z,7.50
2023-03-26T19:17:37.079Z,7.50
2023-03-26T19:20:09.312Z,7.50
2023-03-26T19:22:38.117Z,7.40
2023-03-26T19:25:05.866Z,7.20
2023-03-26T19:27:32.964Z,7.20
2023-03-26T19:29:59.875Z,7.20
2023-03-26T19:32:32.556Z,7.10
2023-03-26T19:35:02.523Z,7.10
2023-03-26T19:37:30.905Z,7.00
2023-03-26T19:40:12.787Z,6.90
2023-03-26T19:42:44.102Z,6.90
2023-03-26T19:45:23.292Z,6.90
2023-03-26T19:48:03.540Z,6.80
2023-03-26T19:50:36.713Z,6.90
2023-03-26T19:53:25.545Z,6.80
2023-03-26T19:55:57.396Z,6.80
2023-03-26T19:58:26.602Z,6.80
2023-03-26T20:00:55.838Z,6.70
2023-03-26T20:03:40.384Z,6.70
2023-03-26T20:06:12.307Z,6.70
2023-03-26T20:08:40.698Z,6.80
2023-03-26T20:11:14.865Z,6.80
2023-03-26T20:13:41.670Z,6.80
2023-03-26T20:16:28.356Z,6.80
2023-03-26T20:19:02.637Z,6.80
2023-03-26T20:21:32.348Z,6.70
2023-03-26T20:23:59.329Z,6.80
2023-03-26T20:26:26.599Z,6.80
2023-03-26T20:28:53.848Z,6.80
2023-03-26T20:31:23.348Z,6.90
2023-03-26T20:33:51.953Z,6.80
2023-03-26T20:36:34.426Z,6.90
2023-03-26T20:39:08.100Z,7.00
2023-03-26T20:41:43.716Z,6.90
2023-03-26T20:44:23.711Z,6.90
2023-03-26T20:47:04.014Z,7.00
2023-03-26T20:49:32.231Z,7.00
2023-03-26T20:52:00.134Z,7.10
2023-03-26T20:54:29.348Z,7.00
2023-03-26T20:56:56.550Z,7.00
2023-03-26T20:59:26.800Z,7.00
2023-03-26T21:01:56.677Z,6.90
2023-03-26T21:04:26.359Z,6.90
2023-03-26T21:07:00.367Z,6.80
2023-03-26T21:09:35.669Z,6.90
2023-03-26T21:12:07.821Z,6.90
2023-03-26T21:14:41.924Z,6.90
2023-03-26T21:17:22.251Z,7.00
2023-03-26T21:19:49.799Z,7.00
2023-03-26T21:22:35.124Z,7.10
2023-03-26T21:25:18.234Z,7.00
2023-03-26T21:27:53.752Z,7.10
2023-03-26T21:30:21.439Z,7.10
2023-03-26T21:32:48.678Z,7.20
2023-03-26T21:35:16.365Z,7.10
2023-03-26T21:37:45.637Z,7.10
2023-03-26T21:40:15.048Z,7.10
2023-03-26T21:42:43.497Z,7.10
2023-03-26T21:45:10.734Z,7.10
2023-03-26T21:47:38.225Z,7.10
2023-03-26T21:50:07.132Z,7.10
2023-03-26T21:52:34.891Z,7.10
2023-03-26T21:55:03.784Z,7.10
2023-03-26T21:57:48.409Z,7.10
2023-03-26T22:00:23.756Z,7.10
2023-03-26T22:03:09.135Z,7.00
2023-03-26T22:05:59.327Z,6.90
2023-03-26T22:08:35.100Z,6.90
2023-03-26T22:11:02.025Z,6.80
2023-03-26T22:13:28.812Z,6.70
2023-03-26T22:15:56.950Z,6.70
2023-03-26T22:18:28.534Z,6.60
2023-03-26T22:20:55.707Z,6.60
2023-03-26T22:23:23.353Z,6.60
2023-03-26T22:25:50.305Z,6.60
2023-03-26T22:28:17.122Z,6.50
2023-03-26T22:30:44.133Z,6.60
2023-03-26T22:33:12.020Z,6.60
2023-03-26T22:35:41.363Z,6.70
2023-03-26T22:38:09.830Z,6.80
2023-03-26T22:40:36.612Z,6.90
2023-03-26T22:43:03.660Z,6.90
2023-03-26T22:45:30.586Z,6.90
2023-03-26T22:48:03.778Z,7.00
2023-03-26T22:50:31.625Z,6.90
2023-03-26T22:52:58.550Z,7.00
2023-03-26T22:55:28.757Z,7.00
2023-03-26T22:57:56.791Z,7.00
2023-03-26T23:00:23.584Z,7.00
2023-03-26T23:02:50.400Z,6.90
2023-03-26T23:05:17.983Z,6.80
2023-03-26T23:07:46.101Z,6.70
2023-03-26T23:10:13.485Z,6.60
2023-03-26T23:12:41.347Z,6.50
2023-03-26T23:15:09.762Z,6.50
2023-03-26T23:17:37.856Z,6.60
2023-03-26T23:20:14.133Z,6.70
2023-03-26T23:22:42.569Z,6.70
2023-03-26T23:25:10.288Z,6.70
2023-03-26T23:27:37.305Z,6.70
2023-03-26T23:30:05.123Z,6.70
2023-03-26T23:32:31.947Z,6.70
2023-03-26T23:34:58.891Z,6.80
2023-03-26T23:37:25.672Z,6.80
2023-03-26T23:39:52.737Z,6.80
2023-03-26T23:42:29.295Z,6.80
2023-03-26T23:44:57.039Z,6.80
2023-03-26T23:47:24.143Z,6.90
2023-03-26T23:49:51.169Z,6.80
2023-03-26T23:52:18.254Z,6.90
2023-03-26T23:54:45.596Z,6.90
2023-03-26T23:57:13.105Z,6.90
2023-03-26T23:59:41.788Z,7.00
